sensor_id;sensor_type;location;lat;lon;timestamp;temperature;humidity
75719;DHT22;64340;48.534;-3.036;2024-01-25T00:01:34;18.40;63.00
75719;DHT22;64340;48.534;-3.036;2024-01-25T00:04:00;18.40;63.10
75719;DHT22;64340;48.534;-3.036;2024-01-25T00:06:26;18.40;63.00
75719;DHT22;64340;48.534;-3.036;2024-01-25T00:08:52;18.40;63.00
75719;DHT22;64340;48.534;-3.036;2024-01-25T00:11:17;18.40;63.00
75719;DHT22;64340;48.534;-3.036;2024-01-25T00:13:43;18.30;63.00
75719;DHT22;64340;48.534;-3.036;2024-01-25T00:16:09;18.30;63.10
75719;DHT22;64340;48.534;-3.036;2024-01-25T00:18:34;18.30;63.10
75719;DHT22;64340;48.534;-3.036;2024-01-25T00:21:00;18.30;63.00
75719;DHT22;64340;48.534;-3.036;2024-01-25T00:23:26;18.30;63.00
75719;DHT22;64340;48.534;-3.036;2024-01-25T00:25:52;18.30;63.00
75719;DHT22;64340;48.534;-3.036;2024-01-25T00:28:18;18.30;63.00
75719;DHT22;64340;48.534;-3.036;2024-01-25T00:30:43;18.20;63.00
75719;DHT22;64340;48.534;-3.036;2024-01-25T00:33:09;18.20;63.00
75719;DHT22;64340;48.534;-3.036;2024-01-25T00:35:35;18.20;63.10
75719;DHT22;64340;48.534;-3.036;2024-01-25T00:38:01;18.10;63.00
75719;DHT22;64340;48.534;-3.036;2024-01-25T00:40:27;18.20;63.00
75719;DHT22;64340;48.534;-3.036;2024-01-25T00:42:53;18.20;63.00
75719;DHT22;64340;48.534;-3.036;2024-01-25T00:45:20;18.10;63.10
75719;DHT22;64340;48.534;-3.036;2024-01-25T00:47:46;18.10;63.20
75719;DHT22;64340;48.534;-3.036;2024-01-25T00:50:13;18.10;63.20
75719;DHT22;64340;48.534;-3.036;2024-01-25T00:52:39;18.10;63.20
75719;DHT22;64340;48.534;-3.036;2024-01-25T00:55:05;18.10;63.20
75719;DHT22;64340;48.534;-3.036;2024-01-25T00:57:32;18.00;63.20
75719;DHT22;64340;48.534;-3.036;2024-01-25T00:59:58;18.00;63.30
75719;DHT22;64340;48.534;-3.036;2024-01-25T01:02:25;18.00;63.30
75719;DHT22;64340;48.534;-3.036;2024-01-25T01:04:59;18.00;63.20
75719;DHT22;64340;48.534;-3.036;2024-01-25T01:07:25;18.00;63.20
75719;DHT22;64340;48.534;-3.036;2024-01-25T01:09:51;18.00;63.20
75719;DHT22;64340;48.534;-3.036;2024-01-25T01:12:16;18.00;63.10
75719;DHT22;64340;48.534;-3.036;2024-01-25T01:14:43;18.00;63.20
75719;DHT22;64340;48.534;-3.036;2024-01-25T01:17:08;18.00;63.20
75719;DHT22;64340;48.534;-3.036;2024-01-25T01:19:34;18.00;63.20
75719;DHT22;64340;48.534;-3.036;2024-01-25T01:22:00;18.00;63.10
75719;DHT22;64340;48.534;-3.036;2024-01-25T01:24:25;18.00;63.20
75719;DHT22;64340;48.534;-3.036;2024-01-25T01:26:51;18.00;63.00
75719;DHT22;64340;48.534;-3.036;2024-01-25T01:29:17;18.00;63.10
75719;DHT22;64340;48.534;-3.036;2024-01-25T01:31:44;17.90;63.10
75719;DHT22;64340;48.534;-3.036;2024-01-25T01:34:09;17.90;63.10
75719;DHT22;64340;48.534;-3.036;2024-01-25T01:36:35;18.00;63.10
75719;DHT22;64340;48.534;-3.036;2024-01-25T01:39:02;17.90;63.10
75719;DHT22;64340;48.534;-3.036;2024-01-25T01:41:27;17.90;63.00
75719;DHT22;64340;48.534;-3.036;2024-01-25T01:43:54;17.80;63.10
75719;DHT22;64340;48.534;-3.036;2024-01-25T01:46:34;17.90;63.00
75719;DHT22;64340;48.534;-3.036;2024-01-25T01:49:21;17.80;63.10
75719;DHT22;64340;48.534;-3.036;2024-01-25T01:51:47;17.80;63.10
75719;DHT22;64340;48.534;-3.036;2024-01-25T01:54:13;17.80;63.10
75719;DHT22;64340;48.534;-3.036;2024-01-25T01:56:39;17.80;63.10
75719;DHT22;64340;48.534;-3.036;2024-01-25T01:59:10;17.80;63.00
75719;DHT22;64340;48.534;-3.036;2024-01-25T02:01:37;17.80;63.00
75719;DHT22;64340;48.534;-3.036;2024-01-25T02:04:07;17.80;63.00
75719;DHT22;64340;48.534;-3.036;2024-01-25T02:06:33;17.80;63.00
75719;DHT22;64340;48.534;-3.036;2024-01-25T02:08:59;17.80;63.10
75719;DHT22;64340;48.534;-3.036;2024-01-25T02:11:25;17.80;63.20
75719;DHT22;64340;48.534;-3.036;2024-01-25T02:13:51;17.70;63.30
75719;DHT22;64340;48.534;-3.036;2024-01-25T02:16:17;17.80;63.20
75719;DHT22;64340;48.534;-3.036;2024-01-25T02:18:44;17.70;63.30
75719;DHT22;64340;48.534;-3.036;2024-01-25T02:21:10;17.70;63.30
75719;DHT22;64340;48.534;-3.036;2024-01-25T02:23:35;17.70;63.30
75719;DHT22;64340;48.534;-3.036;2024-01-25T02:26:01;17.60;63.30
75719;DHT22;64340;48.534;-3.036;2024-01-25T02:28:27;17.60;63.40
75719;DHT22;64340;48.534;-3.036;2024-01-25T02:30:53;17.70;63.30
75719;DHT22;64340;48.534;-3.036;2024-01-25T02:33:18;17.60;63.30
75719;DHT22;64340;48.534;-3.036;2024-01-25T02:35:44;17.60;63.30
75719;DHT22;64340;48.534;-3.036;2024-01-25T02:38:10;17.60;63.30
75719;DHT22;64340;48.534;-3.036;2024-01-25T02:40:36;17.60;63.20
75719;DHT22;64340;48.534;-3.036;2024-01-25T02:43:01;17.60;63.20
75719;DHT22;64340;48.534;-3.036;2024-01-25T02:45:27;17.60;63.20
75719;DHT22;64340;48.534;-3.036;2024-01-25T02:47:53;17.60;63.20
75719;DHT22;64340;48.534;-3.036;2024-01-25T02:50:19;17.60;63.20
75719;DHT22;64340;48.534;-3.036;2024-01-25T02:52:44;17.60;63.10
75719;DHT22;64340;48.534;-3.036;2024-01-25T02:55:10;17.60;63.20
75719;DHT22;64340;48.534;-3.036;2024-01-25T02:57:36;17.60;63.10
75719;DHT22;64340;48.534;-3.036;2024-01-25T03:00:02;17.60;63.20
75719;DHT22;64340;48.534;-3.036;2024-01-25T03:02:28;17.60;63.20
75719;DHT22;64340;48.534;-3.036;2024-01-25T03:04:54;17.60;63.10
75719;DHT22;64340;48.534;-3.036;2024-01-25T03:07:20;17.50;63.10
75719;DHT22;64340;48.534;-3.036;2024-01-25T03:09:45;17.50;63.20
75719;DHT22;64340;48.534;-3.036;2024-01-25T03:12:11;17.60;63.00
75719;DHT22;64340;48.534;-3.036;2024-01-25T03:14:37;17.50;63.10
75719;DHT22;64340;48.534;-3.036;2024-01-25T03:17:02;17.50;63.20
75719;DHT22;64340;48.534;-3.036;2024-01-25T03:19:29;17.50;63.10
75719;DHT22;64340;48.534;-3.036;2024-01-25T03:21:55;17.50;63.20
75719;DHT22;64340;48.534;-3.036;2024-01-25T03:24:21;17.50;63.10
75719;DHT22;64340;48.534;-3.036;2024-01-25T03:26:47;17.50;63.00
75719;DHT22;64340;48.534;-3.036;2024-01-25T03:29:14;17.50;63.10
75719;DHT22;64340;48.534;-3.036;2024-01-25T03:31:39;17.50;63.10
75719;DHT22;64340;48.534;-3.036;2024-01-25T03:34:05;17.50;63.20
75719;DHT22;64340;48.534;-3.036;2024-01-25T03:36:31;17.50;63.20
75719;DHT22;64340;48.534;-3.036;2024-01-25T03:38:57;17.40;63.30
75719;DHT22;64340;48.534;-3.036;2024-01-25T03:41:23;17.40;63.40
75719;DHT22;64340;48.534;-3.036;2024-01-25T03:43:49;17.40;63.30
75719;DHT22;64340;48.534;-3.036;2024-01-25T03:46:15;17.50;63.30
75719;DHT22;64340;48.534;-3.036;2024-01-25T03:48:41;17.50;63.30
75719;DHT22;64340;48.534;-3.036;2024-01-25T03:51:06;17.50;63.20
75719;DHT22;64340;48.534;-3.036;2024-01-25T03:53:32;17.50;63.20
75719;DHT22;64340;48.534;-3.036;2024-01-25T03:55:58;17.50;63.30
75719;DHT22;64340;48.534;-3.036;2024-01-25T03:58:24;17.50;63.20
75719;DHT22;64340;48.534;-3.036;2024-01-25T04:00:49;17.40;63.40
75719;DHT22;64340;48.534;-3.036;2024-01-25T04:03:15;17.40;63.20
75719;DHT22;64340;48.534;-3.036;2024-01-25T04:05:41;17.40;63.30
75719;DHT22;64340;48.534;-3.036;2024-01-25T04:08:07;17.40;63.30
75719;DHT22;64340;48.534;-3.036;2024-01-25T04:10:33;17.40;63.30
75719;DHT22;64340;48.534;-3.036;2024-01-25T04:12:58;17.40;63.30
75719;DHT22;64340;48.534;-3.036;2024-01-25T04:15:26;17.40;63.20
75719;DHT22;64340;48.534;-3.036;2024-01-25T04:17:52;17.40;63.20
75719;DHT22;64340;48.534;-3.036;2024-01-25T04:20:19;17.40;63.30
75719;DHT22;64340;48.534;-3.036;2024-01-25T04:22:44;17.30;63.30
75719;DHT22;64340;48.534;-3.036;2024-01-25T04:25:11;17.30;63.20
75719;DHT22;64340;48.534;-3.036;2024-01-25T04:27:39;17.40;63.20
75719;DHT22;64340;48.534;-3.036;2024-01-25T04:30:06;17.30;63.20
75719;DHT22;64340;48.534;-3.036;2024-01-25T04:32:32;17.40;63.20
75719;DHT22;64340;48.534;-3.036;2024-01-25T04:34:58;17.30;63.20
75719;DHT22;64340;48.534;-3.036;2024-01-25T04:37:24;17.30;63.20
75719;DHT22;64340;48.534;-3.036;2024-01-25T04:39:49;17.30;63.20
75719;DHT22;64340;48.534;-3.036;2024-01-25T04:42:15;17.30;63.20
75719;DHT22;64340;48.534;-3.036;2024-01-25T04:44:41;17.20;63.30
75719;DHT22;64340;48.534;-3.036;2024-01-25T04:47:07;17.20;63.30
75719;DHT22;64340;48.534;-3.036;2024-01-25T04:49:32;17.20;63.40
75719;DHT22;64340;48.534;-3.036;2024-01-25T04:51:58;17.20;63.40
75719;DHT22;64340;48.534;-3.036;2024-01-25T04:54:24;17.20;63.30
75719;DHT22;64340;48.534;-3.036;2024-01-25T04:56:49;17.20;63.20
75719;DHT22;64340;48.534;-3.036;2024-01-25T04:59:15;17.20;63.20
75719;DHT22;64340;48.534;-3.036;2024-01-25T05:01:41;17.20;63.30
75719;DHT22;64340;48.534;-3.036;2024-01-25T05:04:07;17.20;63.30
75719;DHT22;64340;48.534;-3.036;2024-01-25T05:06:32;17.20;63.30
75719;DHT22;64340;48.534;-3.036;2024-01-25T05:08:58;17.20;63.30
75719;DHT22;64340;48.534;-3.036;2024-01-25T05:11:24;17.20;63.20
75719;DHT22;64340;48.534;-3.036;2024-01-25T05:13:49;17.20;63.20
75719;DHT22;64340;48.534;-3.036;2024-01-25T05:16:15;17.20;63.30
75719;DHT22;64340;48.534;-3.036;2024-01-25T05:18:41;17.20;63.20
75719;DHT22;64340;48.534;-3.036;2024-01-25T05:21:06;17.20;63.20
75719;DHT22;64340;48.534;-3.036;2024-01-25T05:23:32;17.20;63.20
75719;DHT22;64340;48.534;-3.036;2024-01-25T05:25:58;17.20;63.30
75719;DHT22;64340;48.534;-3.036;2024-01-25T05:28:24;17.20;63.60
75719;DHT22;64340;48.534;-3.036;2024-01-25T05:30:50;17.20;63.50
75719;DHT22;64340;48.534;-3.036;2024-01-25T05:33:16;17.20;63.60
75719;DHT22;64340;48.534;-3.036;2024-01-25T05:35:42;17.20;63.60
75719;DHT22;64340;48.534;-3.036;2024-01-25T05:38:07;17.20;63.50
75719;DHT22;64340;48.534;-3.036;2024-01-25T05:40:33;17.20;63.50
75719;DHT22;64340;48.534;-3.036;2024-01-25T05:42:59;17.20;63.60
75719;DHT22;64340;48.534;-3.036;2024-01-25T05:45:25;17.20;63.70
75719;DHT22;64340;48.534;-3.036;2024-01-25T05:47:51;17.20;63.60
75719;DHT22;64340;48.534;-3.036;2024-01-25T05:50:18;17.30;63.60
75719;DHT22;64340;48.534;-3.036;2024-01-25T05:52:43;17.30;63.30
75719;DHT22;64340;48.534;-3.036;2024-01-25T05:55:09;17.20;63.30
75719;DHT22;64340;48.534;-3.036;2024-01-25T05:57:36;17.20;63.70
75719;DHT22;64340;48.534;-3.036;2024-01-25T06:00:03;17.20;63.60
75719;DHT22;64340;48.534;-3.036;2024-01-25T06:02:30;17.20;63.90
75719;DHT22;64340;48.534;-3.036;2024-01-25T06:04:57;17.20;64.00
75719;DHT22;64340;48.534;-3.036;2024-01-25T06:07:25;17.20;63.70
75719;DHT22;64340;48.534;-3.036;2024-01-25T06:09:51;17.20;63.80
75719;DHT22;64340;48.534;-3.036;2024-01-25T06:12:17;17.20;63.70
75719;DHT22;64340;48.534;-3.036;2024-01-25T06:14:42;17.20;63.90
75719;DHT22;64340;48.534;-3.036;2024-01-25T06:17:08;17.20;63.80
75719;DHT22;64340;48.534;-3.036;2024-01-25T06:19:34;17.20;64.00
75719;DHT22;64340;48.534;-3.036;2024-01-25T06:22:00;17.20;64.00
75719;DHT22;64340;48.534;-3.036;2024-01-25T06:24:26;17.20;64.00
75719;DHT22;64340;48.534;-3.036;2024-01-25T06:26:53;17.20;64.00
75719;DHT22;64340;48.534;-3.036;2024-01-25T06:29:19;17.20;64.10
75719;DHT22;64340;48.534;-3.036;2024-01-25T06:31:45;17.20;64.00
75719;DHT22;64340;48.534;-3.036;2024-01-25T06:34:11;17.20;65.30
75719;DHT22;64340;48.534;-3.036;2024-01-25T06:36:37;17.20;66.10
75719;DHT22;64340;48.534;-3.036;2024-01-25T06:39:03;17.20;66.50
75719;DHT22;64340;48.534;-3.036;2024-01-25T06:41:32;17.20;67.90
75719;DHT22;64340;48.534;-3.036;2024-01-25T06:43:58;17.20;68.10
75719;DHT22;64340;48.534;-3.036;2024-01-25T06:46:24;17.20;67.80
75719;DHT22;64340;48.534;-3.036;2024-01-25T06:48:50;17.20;67.40
75719;DHT22;64340;48.534;-3.036;2024-01-25T06:51:16;17.20;67.70
75719;DHT22;64340;48.534;-3.036;2024-01-25T06:53:42;17.20;68.00
75719;DHT22;64340;48.534;-3.036;2024-01-25T06:56:08;17.20;67.80
75719;DHT22;64340;48.534;-3.036;2024-01-25T06:58:34;17.20;67.30
75719;DHT22;64340;48.534;-3.036;2024-01-25T07:01:00;17.20;67.70
75719;DHT22;64340;48.534;-3.036;2024-01-25T07:03:25;17.20;67.60
75719;DHT22;64340;48.534;-3.036;2024-01-25T07:05:51;17.20;67.50
75719;DHT22;64340;48.534;-3.036;2024-01-25T07:08:17;17.20;67.70
75719;DHT22;64340;48.534;-3.036;2024-01-25T07:10:44;17.20;67.60
75719;DHT22;64340;48.534;-3.036;2024-01-25T07:13:10;17.20;67.30
75719;DHT22;64340;48.534;-3.036;2024-01-25T07:15:36;17.20;67.40
75719;DHT22;64340;48.534;-3.036;2024-01-25T07:18:02;17.20;67.50
75719;DHT22;64340;48.534;-3.036;2024-01-25T07:20:27;17.20;67.70
75719;DHT22;64340;48.534;-3.036;2024-01-25T07:22:53;17.20;67.50
75719;DHT22;64340;48.534;-3.036;2024-01-25T07:25:19;17.20;67.40
75719;DHT22;64340;48.534;-3.036;2024-01-25T07:27:45;17.20;67.40
75719;DHT22;64340;48.534;-3.036;2024-01-25T07:30:11;17.20;67.30
75719;DHT22;64340;48.534;-3.036;2024-01-25T07:32:38;17.20;67.50
75719;DHT22;64340;48.534;-3.036;2024-01-25T07:35:05;17.20;67.20
75719;DHT22;64340;48.534;-3.036;2024-01-25T07:37:31;17.20;67.30
75719;DHT22;64340;48.534;-3.036;2024-01-25T07:39:57;17.10;67.20
75719;DHT22;64340;48.534;-3.036;2024-01-25T07:42:22;17.10;67.10
75719;DHT22;64340;48.534;-3.036;2024-01-25T07:44:48;17.10;67.10
75719;DHT22;64340;48.534;-3.036;2024-01-25T07:47:14;17.10;67.20
75719;DHT22;64340;48.534;-3.036;2024-01-25T07:49:43;17.10;67.40
75719;DHT22;64340;48.534;-3.036;2024-01-25T07:52:08;17.00;67.20
75719;DHT22;64340;48.534;-3.036;2024-01-25T07:54:34;17.10;67.10
75719;DHT22;64340;48.534;-3.036;2024-01-25T07:57:00;17.20;66.90
75719;DHT22;64340;48.534;-3.036;2024-01-25T07:59:25;17.20;66.80
75719;DHT22;64340;48.534;-3.036;2024-01-25T08:01:51;17.10;67.00
75719;DHT22;64340;48.534;-3.036;2024-01-25T08:04:17;17.20;67.00
75719;DHT22;64340;48.534;-3.036;2024-01-25T08:06:43;17.20;66.90
75719;DHT22;64340;48.534;-3.036;2024-01-25T08:09:08;17.10;66.90
75719;DHT22;64340;48.534;-3.036;2024-01-25T08:11:34;17.10;67.00
75719;DHT22;64340;48.534;-3.036;2024-01-25T08:14:00;17.20;66.80
75719;DHT22;64340;48.534;-3.036;2024-01-25T08:16:26;17.20;66.70
75719;DHT22;64340;48.534;-3.036;2024-01-25T08:18:52;17.10;66.80
75719;DHT22;64340;48.534;-3.036;2024-01-25T08:21:17;17.20;66.70
75719;DHT22;64340;48.534;-3.036;2024-01-25T08:23:43;17.00;66.80
75719;DHT22;64340;48.534;-3.036;2024-01-25T08:26:09;17.00;66.80
75719;DHT22;64340;48.534;-3.036;2024-01-25T08:28:46;17.00;66.80
75719;DHT22;64340;48.534;-3.036;2024-01-25T08:31:12;17.00;66.80
75719;DHT22;64340;48.534;-3.036;2024-01-25T08:33:39;17.00;66.70
75719;DHT22;64340;48.534;-3.036;2024-01-25T08:36:10;17.00;66.70
75719;DHT22;64340;48.534;-3.036;2024-01-25T08:38:36;17.10;66.70
75719;DHT22;64340;48.534;-3.036;2024-01-25T08:41:02;17.00;66.60
75719;DHT22;64340;48.534;-3.036;2024-01-25T08:43:28;17.10;66.60
75719;DHT22;64340;48.534;-3.036;2024-01-25T08:45:54;17.00;66.50
75719;DHT22;64340;48.534;-3.036;2024-01-25T08:48:20;17.00;66.60
75719;DHT22;64340;48.534;-3.036;2024-01-25T08:50:46;17.00;66.50
75719;DHT22;64340;48.534;-3.036;2024-01-25T08:53:12;17.10;66.20
75719;DHT22;64340;48.534;-3.036;2024-01-25T08:55:38;17.00;66.50
75719;DHT22;64340;48.534;-3.036;2024-01-25T08:58:04;17.00;66.30
75719;DHT22;64340;48.534;-3.036;2024-01-25T09:00:29;17.00;66.60
75719;DHT22;64340;48.534;-3.036;2024-01-25T09:02:55;17.00;66.50
75719;DHT22;64340;48.534;-3.036;2024-01-25T09:05:21;17.00;66.50
75719;DHT22;64340;48.534;-3.036;2024-01-25T09:07:47;17.00;66.40
75719;DHT22;64340;48.534;-3.036;2024-01-25T09:10:13;17.00;66.50
75719;DHT22;64340;48.534;-3.036;2024-01-25T09:12:39;17.00;66.60
75719;DHT22;64340;48.534;-3.036;2024-01-25T09:15:05;17.00;66.50
75719;DHT22;64340;48.534;-3.036;2024-01-25T09:17:31;17.10;66.50
75719;DHT22;64340;48.534;-3.036;2024-01-25T09:19:56;17.00;66.50
75719;DHT22;64340;48.534;-3.036;2024-01-25T09:22:24;17.10;66.40
75719;DHT22;64340;48.534;-3.036;2024-01-25T09:24:50;17.10;66.20
75719;DHT22;64340;48.534;-3.036;2024-01-25T09:27:16;17.20;66.20
75719;DHT22;64340;48.534;-3.036;2024-01-25T09:29:42;17.20;66.20
75719;DHT22;64340;48.534;-3.036;2024-01-25T09:32:08;17.20;66.00
75719;DHT22;64340;48.534;-3.036;2024-01-25T09:34:36;17.10;66.10
75719;DHT22;64340;48.534;-3.036;2024-01-25T09:37:02;17.00;66.20
75719;DHT22;64340;48.534;-3.036;2024-01-25T09:39:28;17.00;66.40
75719;DHT22;64340;48.534;-3.036;2024-01-25T09:41:54;17.00;66.20
75719;DHT22;64340;48.534;-3.036;2024-01-25T09:44:20;17.00;66.20
75719;DHT22;64340;48.534;-3.036;2024-01-25T09:46:46;17.00;66.20
75719;DHT22;64340;48.534;-3.036;2024-01-25T09:49:12;17.00;66.10
75719;DHT22;64340;48.534;-3.036;2024-01-25T09:51:39;17.00;66.20
75719;DHT22;64340;48.534;-3.036;2024-01-25T09:54:05;17.00;66.20
75719;DHT22;64340;48.534;-3.036;2024-01-25T09:56:32;17.00;66.20
75719;DHT22;64340;48.534;-3.036;2024-01-25T09:58:59;17.00;66.10
75719;DHT22;64340;48.534;-3.036;2024-01-25T10:01:25;17.00;66.10
75719;DHT22;64340;48.534;-3.036;2024-01-25T10:03:51;17.00;66.10
75719;DHT22;64340;48.534;-3.036;2024-01-25T10:06:17;17.00;66.10
75719;DHT22;64340;48.534;-3.036;2024-01-25T10:08:43;17.00;66.20
75719;DHT22;64340;48.534;-3.036;2024-01-25T10:11:09;17.00;66.10
75719;DHT22;64340;48.534;-3.036;2024-01-25T10:13:44;17.00;66.00
75719;DHT22;64340;48.534;-3.036;2024-01-25T10:16:14;17.00;66.00
75719;DHT22;64340;48.534;-3.036;2024-01-25T10:18:44;17.10;65.70
75719;DHT22;64340;48.534;-3.036;2024-01-25T10:21:11;17.20;65.60
75719;DHT22;64340;48.534;-3.036;2024-01-25T10:23:38;17.10;65.60
75719;DHT22;64340;48.534;-3.036;2024-01-25T10:26:03;17.00;65.70
75719;DHT22;64340;48.534;-3.036;2024-01-25T10:28:29;17.00;65.60
75719;DHT22;64340;48.534;-3.036;2024-01-25T10:30:57;17.00;65.90
75719;DHT22;64340;48.534;-3.036;2024-01-25T10:33:25;17.00;65.80
75719;DHT22;64340;48.534;-3.036;2024-01-25T10:35:54;17.00;65.90
75719;DHT22;64340;48.534;-3.036;2024-01-25T10:38:21;17.00;65.90
75719;DHT22;64340;48.534;-3.036;2024-01-25T10:40:49;17.10;65.80
75719;DHT22;64340;48.534;-3.036;2024-01-25T10:43:15;17.10;65.80
75719;DHT22;64340;48.534;-3.036;2024-01-25T10:45:41;17.10;65.90
75719;DHT22;64340;48.534;-3.036;2024-01-25T10:48:07;17.10;65.90
75719;DHT22;64340;48.534;-3.036;2024-01-25T10:50:33;17.10;65.90
75719;DHT22;64340;48.534;-3.036;2024-01-25T10:52:59;17.20;66.00
75719;DHT22;64340;48.534;-3.036;2024-01-25T10:55:26;17.10;65.90
75719;DHT22;64340;48.534;-3.036;2024-01-25T10:57:52;17.20;65.80
75719;DHT22;64340;48.534;-3.036;2024-01-25T11:00:21;17.20;65.90
75719;DHT22;64340;48.534;-3.036;2024-01-25T11:02:47;17.20;65.80
75719;DHT22;64340;48.534;-3.036;2024-01-25T11:05:16;17.20;65.70
75719;DHT22;64340;48.534;-3.036;2024-01-25T11:07:46;17.20;65.80
75719;DHT22;64340;48.534;-3.036;2024-01-25T11:10:17;17.20;65.70
75719;DHT22;64340;48.534;-3.036;2024-01-25T11:12:56;17.20;65.70
75719;DHT22;64340;48.534;-3.036;2024-01-25T11:15:23;17.20;65.70
75719;DHT22;64340;48.534;-3.036;2024-01-25T11:17:54;17.20;65.60
75719;DHT22;64340;48.534;-3.036;2024-01-25T11:20:26;17.20;65.40
75719;DHT22;64340;48.534;-3.036;2024-01-25T11:22:59;17.20;65.50
75719;DHT22;64340;48.534;-3.036;2024-01-25T11:25:36;17.20;65.40
75719;DHT22;64340;48.534;-3.036;2024-01-25T11:28:03;17.20;65.40
75719;DHT22;64340;48.534;-3.036;2024-01-25T11:30:32;17.30;65.40
75719;DHT22;64340;48.534;-3.036;2024-01-25T11:32:59;17.30;65.40
75719;DHT22;64340;48.534;-3.036;2024-01-25T11:35:25;17.20;65.50
75719;DHT22;64340;48.534;-3.036;2024-01-25T11:37:51;17.30;65.40
75719;DHT22;64340;48.534;-3.036;2024-01-25T11:40:18;17.40;65.30
75719;DHT22;64340;48.534;-3.036;2024-01-25T11:42:49;17.40;65.40
75719;DHT22;64340;48.534;-3.036;2024-01-25T11:45:15;17.40;65.40
75719;DHT22;64340;48.534;-3.036;2024-01-25T11:47:42;17.40;65.40
75719;DHT22;64340;48.534;-3.036;2024-01-25T11:50:10;17.40;65.30
75719;DHT22;64340;48.534;-3.036;2024-01-25T11:52:37;17.40;65.30
75719;DHT22;64340;48.534;-3.036;2024-01-25T11:55:06;17.40;65.50
75719;DHT22;64340;48.534;-3.036;2024-01-25T11:57:38;17.40;65.40
75719;DHT22;64340;48.534;-3.036;2024-01-25T12:00:10;17.40;65.40
75719;DHT22;64340;48.534;-3.036;2024-01-25T12:02:38;17.40;65.50
75719;DHT22;64340;48.534;-3.036;2024-01-25T12:05:05;17.50;65.30
75719;DHT22;64340;48.534;-3.036;2024-01-25T12:07:31;17.50;65.10
75719;DHT22;64340;48.534;-3.036;2024-01-25T12:10:03;17.50;65.10
75719;DHT22;64340;48.534;-3.036;2024-01-25T12:12:29;17.50;65.10
75719;DHT22;64340;48.534;-3.036;2024-01-25T12:14:59;17.50;65.00
75719;DHT22;64340;48.534;-3.036;2024-01-25T12:17:28;17.50;65.00
75719;DHT22;64340;48.534;-3.036;2024-01-25T12:19:55;17.50;65.20
75719;DHT22;64340;48.534;-3.036;2024-01-25T12:22:22;17.50;65.10
75719;DHT22;64340;48.534;-3.036;2024-01-25T12:24:47;17.50;64.90
75719;DHT22;64340;48.534;-3.036;2024-01-25T12:27:17;17.50;65.00
75719;DHT22;64340;48.534;-3.036;2024-01-25T12:29:43;17.50;65.10
75719;DHT22;64340;48.534;-3.036;2024-01-25T12:32:09;17.50;65.10
75719;DHT22;64340;48.534;-3.036;2024-01-25T12:34:35;17.50;65.10
75719;DHT22;64340;48.534;-3.036;2024-01-25T12:37:03;17.50;65.20
75719;DHT22;64340;48.534;-3.036;2024-01-25T12:39:28;17.50;65.20
75719;DHT22;64340;48.534;-3.036;2024-01-25T12:41:54;17.50;65.10
75719;DHT22;64340;48.534;-3.036;2024-01-25T12:44:20;17.50;65.10
75719;DHT22;64340;48.534;-3.036;2024-01-25T12:46:46;17.50;65.10
75719;DHT22;64340;48.534;-3.036;2024-01-25T12:49:11;17.50;65.10
75719;DHT22;64340;48.534;-3.036;2024-01-25T12:51:37;17.40;65.20
75719;DHT22;64340;48.534;-3.036;2024-01-25T12:54:03;17.40;65.20
75719;DHT22;64340;48.534;-3.036;2024-01-25T12:56:29;17.40;65.20
75719;DHT22;64340;48.534;-3.036;2024-01-25T12:58:55;17.40;65.30
75719;DHT22;64340;48.534;-3.036;2024-01-25T13:01:20;17.40;65.20
75719;DHT22;64340;48.534;-3.036;2024-01-25T13:03:47;17.40;65.20
75719;DHT22;64340;48.534;-3.036;2024-01-25T13:06:13;17.40;65.30
75719;DHT22;64340;48.534;-3.036;2024-01-25T13:08:39;17.50;65.20
75719;DHT22;64340;48.534;-3.036;2024-01-25T13:11:05;17.40;65.20
75719;DHT22;64340;48.534;-3.036;2024-01-25T13:13:30;17.40;65.20
75719;DHT22;64340;48.534;-3.036;2024-01-25T13:15:56;17.40;65.20
75719;DHT22;64340;48.534;-3.036;2024-01-25T13:18:22;17.40;65.20
75719;DHT22;64340;48.534;-3.036;2024-01-25T13:20:48;17.40;65.20
75719;DHT22;64340;48.534;-3.036;2024-01-25T13:23:13;17.40;65.20
75719;DHT22;64340;48.534;-3.036;2024-01-25T13:25:39;17.50;65.20
75719;DHT22;64340;48.534;-3.036;2024-01-25T13:28:05;17.50;65.30
75719;DHT22;64340;48.534;-3.036;2024-01-25T13:30:31;17.50;65.00
75719;DHT22;64340;48.534;-3.036;2024-01-25T13:32:56;17.50;64.80
75719;DHT22;64340;48.534;-3.036;2024-01-25T13:35:23;17.60;64.70
75719;DHT22;64340;48.534;-3.036;2024-01-25T13:37:48;17.60;64.80
75719;DHT22;64340;48.534;-3.036;2024-01-25T13:40:14;17.60;64.80
75719;DHT22;64340;48.534;-3.036;2024-01-25T13:42:40;17.60;64.80
75719;DHT22;64340;48.534;-3.036;2024-01-25T13:45:06;17.80;64.60
75719;DHT22;64340;48.534;-3.036;2024-01-25T13:47:32;17.60;64.40
75719;DHT22;64340;48.534;-3.036;2024-01-25T13:49:58;17.50;65.30
75719;DHT22;64340;48.534;-3.036;2024-01-25T13:52:24;17.60;65.10
75719;DHT22;64340;48.534;-3.036;2024-01-25T13:54:49;17.60;65.20
75719;DHT22;64340;48.534;-3.036;2024-01-25T13:57:15;17.60;65.30
75719;DHT22;64340;48.534;-3.036;2024-01-25T13:59:41;17.60;65.90
75719;DHT22;64340;48.534;-3.036;2024-01-25T14:02:07;17.60;65.90
75719;DHT22;64340;48.534;-3.036;2024-01-25T14:04:33;17.60;65.70
75719;DHT22;64340;48.534;-3.036;2024-01-25T14:06:58;17.60;65.50
75719;DHT22;64340;48.534;-3.036;2024-01-25T14:09:24;17.60;65.60
75719;DHT22;64340;48.534;-3.036;2024-01-25T14:11:50;17.60;65.40
75719;DHT22;64340;48.534;-3.036;2024-01-25T14:14:15;17.60;65.60
75719;DHT22;64340;48.534;-3.036;2024-01-25T14:16:41;17.60;65.50
75719;DHT22;64340;48.534;-3.036;2024-01-25T14:19:07;17.60;65.50
75719;DHT22;64340;48.534;-3.036;2024-01-25T14:21:33;17.60;65.50
75719;DHT22;64340;48.534;-3.036;2024-01-25T14:23:59;17.50;65.60
75719;DHT22;64340;48.534;-3.036;2024-01-25T14:26:24;17.50;65.50
75719;DHT22;64340;48.534;-3.036;2024-01-25T14:28:50;17.50;65.40
75719;DHT22;64340;48.534;-3.036;2024-01-25T14:31:16;17.50;65.90
75719;DHT22;64340;48.534;-3.036;2024-01-25T14:33:41;17.50;65.60
75719;DHT22;64340;48.534;-3.036;2024-01-25T14:36:07;17.60;65.40
75719;DHT22;64340;48.534;-3.036;2024-01-25T14:38:33;17.60;65.50
75719;DHT22;64340;48.534;-3.036;2024-01-25T14:40:59;17.60;65.40
75719;DHT22;64340;48.534;-3.036;2024-01-25T14:43:25;17.60;65.50
75719;DHT22;64340;48.534;-3.036;2024-01-25T14:45:51;17.60;65.40
75719;DHT22;64340;48.534;-3.036;2024-01-25T14:48:18;17.70;65.20
75719;DHT22;64340;48.534;-3.036;2024-01-25T14:50:43;17.60;65.10
75719;DHT22;64340;48.534;-3.036;2024-01-25T14:53:09;17.70;65.40
75719;DHT22;64340;48.534;-3.036;2024-01-25T14:55:35;17.70;65.10
75719;DHT22;64340;48.534;-3.036;2024-01-25T14:58:01;17.60;65.20
75719;DHT22;64340;48.534;-3.036;2024-01-25T15:00:26;17.70;65.40
75719;DHT22;64340;48.534;-3.036;2024-01-25T15:02:52;17.70;65.20
75719;DHT22;64340;48.534;-3.036;2024-01-25T15:05:18;17.70;65.30
75719;DHT22;64340;48.534;-3.036;2024-01-25T15:07:45;17.60;65.30
75719;DHT22;64340;48.534;-3.036;2024-01-25T15:10:10;17.60;65.60